Stations météo

Publicité
Rodkallen, Suède (2188): Température de l'air & dewpoint: 21.10.2020 18:00:00 - 27.10.2020 18:00:00 (CET)Rodkallen, Suède (2188): Vitesse du vent & gusts: 21.10.2020 18:00:00 - 27.10.2020 18:00:00 (CET)Rodkallen, Suède (2188): Direction du vent: 21.10.2020 18:00:00 - 27.10.2020 18:00:00 (CET)Rodkallen, Suède (2188): visibility: 21.10.2020 18:00:00 - 27.10.2020 18:00:00 (CET)Rodkallen, Suède (2188): Quantités de précipitations: 21.10.2020 18:00:00 - 27.10.2020 18:00:00 (CET)
Date & Time tt [°C] td [°C] ff [km/h] ff [knt] fx [km/h] fx [knt] dd vv [km] rr [mm]
27.10.2020 18:00:00 6,2 4,3 29 16 40 21 SW 45 0,0
27.10.2020 17:00:00 5,9 4,4 29 16 44 24 SW 47 0,0
27.10.2020 16:00:00 5,1 4,5 41 22 51 28 WSW 31 0,0
27.10.2020 15:00:00 6,8 6,1 39 21 59 32 SSW 9 0,0
27.10.2020 14:00:00 8,5 7,7 47 26 67 36 SSE 13 1,0
27.10.2020 13:00:00 8,4 8,0 44 24 55 30 SE 3,1 3,2
27.10.2020 12:00:00 8,2 7,9 33 18 41 22 SE 7 3,6
27.10.2020 11:00:00 6,9 6,6 22 12 27 15 NE 3,8 4,3
27.10.2020 10:00:00 6,6 6,3 18 10 21 12 NE 1,6 2,5
27.10.2020 09:00:00 6,7 6,4 13 7 15 8 NE 6 0,6
27.10.2020 08:00:00 6,9 6,6 6 3 14 8 ESE 10 1,4
27.10.2020 07:00:00 7,1 6,8 13 7 19 11 SE 8 1,4
27.10.2020 06:00:00 7,1 6,8 9 5 18 10 SE 0,7 0,2
27.10.2020 05:00:00 6,8 6,2 10 5 14 7 S 29 0,0
27.10.2020 04:00:00 6,5 5,8 10 6 20 11 SSE 30 0,0
27.10.2020 03:00:00 6,3 5,6 12 7 23 13 S 29 0,0
27.10.2020 02:00:00 6,2 5,5 18 10 23 12 SSW 39 0,0
27.10.2020 01:00:00 6,8 6,1 19 10 26 14 S 27 0,0
27.10.2020 00:00:00 6,8 5,9 17 9 27 15 SSW 33 0,0
26.10.2020 23:00:00 7,0 6,1 23 13 29 16 S 25 0,0
26.10.2020 22:00:00 7,0 6,2 24 13 29 16 S 22 0,0
26.10.2020 21:00:00 7,3 6,2 22 12 32 17 S 42 0,0
26.10.2020 20:00:00 7,4 6,0 21 11 24 13 SSW 46 0,0
26.10.2020 19:00:00 6,9 5,8 15 8 30 16 SSW 50 0,0
26.10.2020 18:00:00 7,0 5,8 26 14 35 19 SSW 50 0,0
26.10.2020 17:00:00 6,8 6,5 24 13 36 19 SW 23 0,0
26.10.2020 16:00:00 6,7 6,4 12 7 19 10 SSW 2,6 0,0
26.10.2020 15:00:00 6,2 5,9 4 2 10 5 SSW 23 0,0
26.10.2020 14:00:00 6,4 6,1 9 5 13 7 WSW 32 0,0
26.10.2020 13:00:00 6,5 6,2 9 5 13 7 SW 33 0,0
26.10.2020 12:00:00 6,5 6,2 8 4 11 6 WSW 9 0,0
26.10.2020 11:00:00 6,7 6,4 10 5 13 7 WSW 0,7 0,0
26.10.2020 10:00:00 7,0 6,7 9 5 13 7 SW 0,2 0,0
26.10.2020 09:00:00 7,4 7,1 11 6 19 10 SSW 0,3 0,0
26.10.2020 08:00:00 7,6 7,3 16 8 23 12 SSW 6 0,0
26.10.2020 07:00:00 7,7 7,4 21 12 29 16 S 6 0,0
26.10.2020 06:00:00 7,8 7,5 26 14 37 20 S 2,1 0,0
26.10.2020 05:00:00 7,9 7,5 34 19 45 24 S 9 0,0
26.10.2020 04:00:00 7,8 7,2 37 20 53 29 S 12 0,0
26.10.2020 03:00:00 7,7 6,9 44 24 59 32 S 16 1,0
26.10.2020 02:00:00 7,3 6,6 44 24 64 34 SSE 7 2,2
26.10.2020 01:00:00 6,9 6,2 49 26 66 35 SSE 6 0,8
26.10.2020 00:00:00 6,3 5,6 51 27 65 35 SE 3,2 1,5
25.10.2020 23:00:00 5,3 4,7 50 27 64 35 SE 1,4 2,8
25.10.2020 22:00:00 4,9 4,2 49 26 63 34 SE 1,3 1,4
25.10.2020 21:00:00 4,7 3,5 49 26 64 35 ESE 3,7 0,1
25.10.2020 20:00:00 4,5 2,8 46 25 61 33 ESE 8 1,5
25.10.2020 19:00:00 4,6 2,6 45 24 55 30 SE 7 2,4
25.10.2020 18:00:00 4,9 2,1 41 22 50 27 SE 11 0,2
25.10.2020 17:00:00 5,5 2,1 36 19 42 23 SE 50 0,0
25.10.2020 16:00:00 5,4 1,1 30 16 36 19 SE 50 0,0
25.10.2020 15:00:00 5,0 0,9 19 11 25 13 SE 50 0,0
25.10.2020 14:00:00 5,0 2,2 15 8 19 10 SE 50 0,0
25.10.2020 13:00:00 4,8 1,6 11 6 18 10 SSE 50 0,0
25.10.2020 12:00:00 3,6 2,3 12 7 15 8 NE 50 0,0
25.10.2020 11:00:00 2,8 1,5 11 6 13 7 NNE 50 0,0
25.10.2020 10:00:00 1,6 -0,3 9 5 10 6 N 48 0,0
25.10.2020 09:00:00 1,6 -0,8 4 2 7 4 N 48 0,0
25.10.2020 08:00:00 0,3 -1,8 6 3 10 5 N 50 0,0
25.10.2020 07:00:00 -0,6 -3,0 7 4 15 8 N 50 0,0
25.10.2020 06:00:00 -0,4 -2,8 9 5 12 6 NNW 50 0,0
25.10.2020 05:00:00 0,2 -2,7 8 4 16 9 NNW 50 0,0
25.10.2020 04:00:00 0,2 -3,3 11 6 18 10 NW 50 0,0
25.10.2020 03:00:00 0,8 -3,1 13 7 21 11 NW 50 0,0
25.10.2020 02:00:00 1,2 -2,9 13 7 24 13 NW 50 0,0
25.10.2020 01:00:00 - - - - - - - - -
25.10.2020 00:00:00 2,0 -1,8 18 10 24 13 WNW 50 0,0
24.10.2020 23:00:00 2,5 -1,5 21 11 26 14 W 50 0,0
24.10.2020 22:00:00 2,0 -2,1 19 10 28 15 WNW 50 0,0
24.10.2020 21:00:00 2,4 -1,4 24 13 32 17 WNW 50 0,0
24.10.2020 20:00:00 3,0 -0,6 26 14 33 18 W 50 0,0
24.10.2020 19:00:00 3,1 -1,1 28 15 33 18 W 50 0,0
24.10.2020 18:00:00 3,2 -1,0 26 14 31 17 W 50 0,0
24.10.2020 17:00:00 3,5 -0,7 26 14 36 19 W 50 0,0
24.10.2020 16:00:00 3,4 -1,5 28 15 35 19 WNW 50 0,0
24.10.2020 15:00:00 3,8 -1,4 29 16 35 19 W 50 0,0
24.10.2020 14:00:00 4,2 -1,2 28 15 35 19 W 48 0,0
24.10.2020 13:00:00 3,8 -1,1 29 15 38 21 W 50 0,0
24.10.2020 12:00:00 3,7 -1,3 33 18 45 24 WNW 50 0,0
24.10.2020 11:00:00 3,4 -1,4 35 19 41 22 WNW 50 0,0
24.10.2020 10:00:00 2,7 -1,3 35 19 45 24 WNW 50 0,0
24.10.2020 09:00:00 2,2 -1,6 36 19 50 27 WNW 50 0,0
24.10.2020 08:00:00 2,5 -1,1 36 20 46 25 WNW 50 0,0
24.10.2020 07:00:00 1,9 -2,1 40 22 50 27 WNW 50 0,0
24.10.2020 06:00:00 2,0 -1,6 37 20 49 26 W 50 0,0
24.10.2020 05:00:00 2,3 -1,7 38 20 50 27 W 50 0,0
24.10.2020 04:00:00 1,9 -1,6 40 21 54 29 W 50 0,0
24.10.2020 03:00:00 1,9 -1,9 43 23 55 30 W 50 0,0
24.10.2020 02:00:00 2,2 -1,6 41 22 49 27 W 50 0,0
24.10.2020 01:00:00 2,0 -1,6 40 21 48 26 W 50 0,0
24.10.2020 00:00:00 2,2 -1,4 37 20 43 23 W 50 0,0
23.10.2020 23:00:00 2,3 -0,8 33 18 39 21 W 50 0,0
23.10.2020 22:00:00 2,3 -0,8 27 15 37 20 W 50 0,0
23.10.2020 21:00:00 2,6 -0,5 30 16 38 20 W 50 0,0
23.10.2020 20:00:00 2,6 -0,2 23 12 27 15 W 50 0,0
23.10.2020 19:00:00 2,5 -0,4 21 12 32 18 W 50 0,0
23.10.2020 18:00:00 2,3 -1,0 26 14 34 18 WNW 50 0,0
23.10.2020 17:00:00 2,7 -0,6 29 16 37 20 W 50 0,0
23.10.2020 16:00:00 3,1 -0,7 32 17 39 21 W 50 0,0
23.10.2020 15:00:00 2,6 -1,6 24 13 32 18 W 50 0,0
23.10.2020 14:00:00 2,4 -1,9 21 12 28 15 WSW 50 0,0
23.10.2020 13:00:00 1,4 -2,5 18 10 30 16 W 50 0,0
23.10.2020 12:00:00 0,9 -2,9 23 12 29 16 W 50 0,0
23.10.2020 11:00:00 0,0 -3,4 19 10 29 16 W 50 0,0
23.10.2020 10:00:00 -0,8 -4,1 21 11 28 15 W 49 0,0
23.10.2020 09:00:00 -1,3 -4,3 21 12 33 18 WNW 50 0,0
23.10.2020 08:00:00 -1,5 -4,5 24 13 31 17 WNW 50 0,0
23.10.2020 07:00:00 -1,9 -4,4 22 12 34 19 WNW 50 0,0
23.10.2020 06:00:00 -2,1 -4,4 25 13 35 19 WNW 50 0,0
23.10.2020 05:00:00 -2,1 -4,0 23 13 37 20 WNW 50 0,0
23.10.2020 04:00:00 -1,8 -3,3 25 13 36 19 WNW 50 0,0
23.10.2020 03:00:00 -1,3 -3,0 27 15 39 21 WNW 50 0,0
23.10.2020 02:00:00 -1,3 -3,2 30 16 38 21 NW 50 0,0
23.10.2020 01:00:00 -1,2 -3,1 26 14 37 20 NW 50 0,0
23.10.2020 00:00:00 -0,8 -2,4 25 14 36 20 NW 50 0,1
22.10.2020 23:00:00 -0,2 -1,6 23 12 35 19 NW 8 0,1
22.10.2020 22:00:00 -0,3 -1,9 24 13 37 20 NW 16 -
22.10.2020 21:00:00 -0,1 -1,7 22 12 38 21 NW 50 0,0
22.10.2020 20:00:00 -0,1 -1,5 24 13 37 20 NNW 50 0,0
22.10.2020 19:00:00 0,1 -1,3 22 12 36 20 NNW 50 0,0
22.10.2020 18:00:00 0,3 -1,1 22 12 36 20 NNW 46 -
22.10.2020 17:00:00 0,5 -0,6 23 12 37 20 NNW 28 0,0
22.10.2020 16:00:00 0,5 -0,6 26 14 40 22 NNW 35 0,0
22.10.2020 15:00:00 0,8 -0,4 27 15 42 23 NNW 41 0,0
22.10.2020 14:00:00 1,0 -0,2 29 15 43 23 NNW 32 0,0
22.10.2020 13:00:00 1,5 0,5 29 16 36 19 N 42 0,0
22.10.2020 12:00:00 1,8 0,9 25 14 36 20 N 50 0,0
22.10.2020 11:00:00 2,1 1,5 29 16 41 22 N 50 0,0
22.10.2020 10:00:00 2,4 2,0 31 17 42 23 N 3,3 0,0
22.10.2020 09:00:00 3,0 2,4 34 18 41 22 N 50 0,0
22.10.2020 08:00:00 3,3 2,7 32 18 41 22 N 48 0,1
22.10.2020 07:00:00 3,1 2,7 35 19 42 23 N 4,6 0,5
22.10.2020 06:00:00 3,1 2,5 31 17 39 21 N 7 0,2
22.10.2020 05:00:00 4,6 3,4 19 10 23 13 NE 21 0,4
22.10.2020 04:00:00 4,7 2,7 16 8 19 11 ENE 21 0,4
22.10.2020 03:00:00 4,8 3,1 16 8 22 12 E 17 0,1
22.10.2020 02:00:00 4,8 3,0 16 9 25 14 E 39 0,4
22.10.2020 01:00:00 4,6 2,8 22 12 28 15 E 33 0,6
22.10.2020 00:00:00 4,3 2,5 24 13 32 17 E 31 0,8
21.10.2020 23:00:00 4,0 2,5 26 14 36 20 E 12 0,8
21.10.2020 22:00:00 3,7 2,3 31 17 41 22 E 10 0,6
21.10.2020 21:00:00 3,4 2,2 31 17 43 23 E 6 0,6
21.10.2020 20:00:00 2,9 1,7 36 20 49 26 E 6 0,9
21.10.2020 19:00:00 2,6 1,4 40 21 54 29 E 4,0 0,9
21.10.2020 18:00:00 2,7 1,7 43 23 55 30 E 6 1,1

tt = Température de l'air
td = dewpoint
ff = Vitesse du vent
fx = gusts
dd = Direction du vent
vv = visibility
rr = Quantités de précipitations

stations d'obs. à proximité